createdAt,value
2019-02-22T00:01:00.552Z,96.39
2019-02-22T00:03:31.074Z,96.35
2019-02-22T00:06:02.830Z,96.32
2019-02-22T00:08:33.673Z,96.75
2019-02-22T00:11:04.116Z,96.89
2019-02-22T00:13:34.555Z,96.82
2019-02-22T00:16:05.027Z,96.86
2019-02-22T00:18:35.810Z,97.07
2019-02-22T00:21:06.275Z,97.12
2019-02-22T00:23:37.223Z,97.29
2019-02-22T00:26:08.005Z,97.02
2019-02-22T00:28:38.482Z,96.46
2019-02-22T00:31:08.963Z,96.37
2019-02-22T00:33:39.727Z,96.66
2019-02-22T00:36:10.292Z,96.68
2019-02-22T00:38:40.723Z,96.81
2019-02-22T00:41:11.492Z,96.46
2019-02-22T00:43:42.036Z,96.56
2019-02-22T00:46:12.482Z,96.54
2019-02-22T00:48:42.924Z,96.27
2019-02-22T00:51:13.395Z,96.32
2019-02-22T00:53:43.844Z,96.16
2019-02-22T00:56:14.345Z,95.67
2019-02-22T00:58:44.787Z,95.82
2019-02-22T01:01:15.238Z,95.41
2019-02-22T01:03:46.133Z,95.58
2019-02-22T01:06:16.578Z,95.21
2019-02-22T01:08:47.398Z,95.51
2019-02-22T01:11:17.841Z,95.71
2019-02-22T01:13:48.289Z,95.82
2019-02-22T01:16:18.771Z,95.66
2019-02-22T01:18:49.214Z,95.92
2019-02-22T01:21:20.956Z,95.78
2019-02-22T01:23:51.413Z,95.80
2019-02-22T01:26:21.854Z,96.08
2019-02-22T01:28:52.370Z,96.53
2019-02-22T01:31:22.814Z,96.57
2019-02-22T01:33:54.293Z,96.42
2019-02-22T01:36:25.259Z,95.96
2019-02-22T01:38:55.779Z,96.08
2019-02-22T01:41:26.303Z,96.34
2019-02-22T01:43:56.742Z,96.32
2019-02-22T01:46:27.226Z,96.25
2019-02-22T01:48:57.666Z,96.14
2019-02-22T01:51:28.111Z,96.24
2019-02-22T01:53:58.614Z,96.04
2019-02-22T01:56:29.059Z,96.21
2019-02-22T01:58:59.500Z,95.95
2019-02-22T02:01:29.970Z,95.98
2019-02-22T02:04:00.439Z,96.17
2019-02-22T02:06:31.276Z,95.61
2019-02-22T02:09:01.749Z,95.94
2019-02-22T02:11:32.191Z,95.62
2019-02-22T02:14:03.234Z,95.39
2019-02-22T02:16:33.684Z,95.48
2019-02-22T02:19:04.174Z,95.38
2019-02-22T02:21:34.615Z,95.13
2019-02-22T02:24:05.184Z,95.46
2019-02-22T02:26:35.660Z,95.25
2019-02-22T02:29:06.435Z,95.42
2019-02-22T02:31:36.959Z,95.19
2019-02-22T02:34:07.747Z,95.03
2019-02-22T02:36:38.189Z,95.58
2019-02-22T02:39:08.678Z,95.44
2019-02-22T02:41:39.124Z,96.05
2019-02-22T02:44:09.563Z,96.17
2019-02-22T02:46:40.055Z,96.36
2019-02-22T02:49:10.500Z,96.05
2019-02-22T02:51:41.564Z,95.83
2019-02-22T02:54:12.402Z,96.18
2019-02-22T02:56:42.857Z,95.74
2019-02-22T02:59:14.646Z,95.85
2019-02-22T03:01:45.103Z,95.63
2019-02-22T03:04:15.963Z,95.61
2019-02-22T03:06:55.010Z,95.61
2019-02-22T03:09:25.470Z,95.43
2019-02-22T03:11:55.938Z,95.54
2019-02-22T03:14:26.799Z,95.08
2019-02-22T03:16:57.239Z,94.97
2019-02-22T03:19:28.451Z,94.60
2019-02-22T03:21:58.920Z,95.32
2019-02-22T03:24:30.319Z,94.96
2019-02-22T03:27:01.381Z,95.58
2019-02-22T03:29:31.816Z,95.48
2019-02-22T03:32:02.366Z,95.53
2019-02-22T03:34:32.835Z,95.36
2019-02-22T03:37:03.329Z,95.73
2019-02-22T03:39:34.165Z,95.25
2019-02-22T03:42:04.607Z,95.62
2019-02-22T03:44:35.077Z,95.88
2019-02-22T03:47:05.524Z,95.51
2019-02-22T03:49:36.004Z,95.11
2019-02-22T03:52:24.454Z,95.18
2019-02-22T03:54:54.927Z,95.54
2019-02-22T03:57:25.386Z,95.65
2019-02-22T03:59:56.217Z,95.62
2019-02-22T04:02:26.771Z,95.35
2019-02-22T04:04:57.223Z,95.74
2019-02-22T04:07:27.709Z,95.50
2019-02-22T04:09:58.166Z,95.35
2019-02-22T04:12:28.621Z,95.10
2019-02-22T04:14:59.102Z,95.02
2019-02-22T04:17:29.553Z,95.24
2019-02-22T04:20:00.002Z,94.75
2019-02-22T04:22:30.491Z,95.25
2019-02-22T04:25:00.937Z,94.75
2019-02-22T04:27:31.388Z,94.84
2019-02-22T04:30:01.905Z,94.91
2019-02-22T04:32:32.378Z,94.03
2019-02-22T04:35:03.204Z,94.68
2019-02-22T04:37:33.697Z,94.61
2019-02-22T04:40:04.158Z,94.48
2019-02-22T04:42:34.647Z,94.58
2019-02-22T04:45:05.811Z,94.80
2019-02-22T04:47:36.624Z,94.84
2019-02-22T04:50:07.828Z,94.95
2019-02-22T04:52:38.282Z,95.28
2019-02-22T04:55:08.773Z,94.70
2019-02-22T04:57:39.226Z,94.93
2019-02-22T05:00:09.749Z,95.24
2019-02-22T05:02:40.294Z,95.25
2019-02-22T05:05:10.749Z,94.76
2019-02-22T05:07:42.170Z,94.85
2019-02-22T05:10:12.975Z,94.50
2019-02-22T05:12:43.548Z,94.70
2019-02-22T05:15:13.995Z,94.74
2019-02-22T05:17:44.451Z,94.48
2019-02-22T05:20:14.920Z,94.71
2019-02-22T05:22:45.361Z,94.61
2019-02-22T05:25:15.860Z,94.58
2019-02-22T05:27:46.306Z,94.55
2019-02-22T05:30:16.754Z,94.44
2019-02-22T05:32:47.247Z,94.53
2019-02-22T05:35:18.494Z,94.63
2019-02-22T05:37:48.941Z,94.66
2019-02-22T05:40:19.442Z,93.78
2019-02-22T05:42:49.905Z,93.83
2019-02-22T05:45:20.346Z,93.62
2019-02-22T05:47:50.846Z,93.67
2019-02-22T05:50:21.290Z,93.79
2019-02-22T05:52:51.739Z,93.72
2019-02-22T05:55:22.213Z,94.23
2019-02-22T05:57:52.652Z,93.85
2019-02-22T06:00:23.611Z,94.04
2019-02-22T06:02:54.061Z,94.05
2019-02-22T06:05:24.542Z,94.07
2019-02-22T06:07:55.613Z,93.73
2019-02-22T06:10:26.074Z,94.22
2019-02-22T06:12:56.823Z,94.05
2019-02-22T06:15:27.294Z,93.95
2019-02-22T06:17:57.742Z,93.76
2019-02-22T06:20:28.231Z,93.93
2019-02-22T06:22:58.670Z,93.48
2019-02-22T06:25:29.126Z,93.78
2019-02-22T06:27:59.601Z,93.72
2019-02-22T06:30:30.047Z,94.23
2019-02-22T06:33:00.731Z,94.06
2019-02-22T06:35:31.190Z,94.03
2019-02-22T06:38:01.654Z,94.05
2019-02-22T06:40:32.151Z,93.96
2019-02-22T06:43:02.962Z,94.56
2019-02-22T06:45:33.412Z,94.74
2019-02-22T06:48:03.905Z,93.96
2019-02-22T06:50:34.347Z,94.02
2019-02-22T06:53:04.839Z,93.89
2019-02-22T06:55:35.313Z,93.25
2019-02-22T06:58:06.203Z,93.20
2019-02-22T07:00:36.731Z,93.48
2019-02-22T07:03:07.184Z,93.43
2019-02-22T07:05:37.628Z,93.48
2019-02-22T07:08:09.085Z,93.09
2019-02-22T07:10:57.036Z,92.56
2019-02-22T07:13:27.531Z,92.83
2019-02-22T07:15:59.292Z,92.79
2019-02-22T07:18:32.138Z,93.23
2019-02-22T07:21:03.769Z,93.25
2019-02-22T07:23:34.215Z,93.34
2019-02-22T07:26:04.690Z,93.73
2019-02-22T07:28:35.131Z,93.71
2019-02-22T07:31:05.648Z,93.71
2019-02-22T07:33:36.146Z,93.49
2019-02-22T07:36:06.603Z,93.03
2019-02-22T07:38:37.086Z,91.97
2019-02-22T07:41:07.539Z,92.61
2019-02-22T07:43:38.019Z,92.32
2019-02-22T07:46:08.471Z,91.32
2019-02-22T07:48:38.918Z,90.16
2019-02-22T07:51:09.390Z,90.73
2019-02-22T07:53:39.830Z,91.01
2019-02-22T07:56:10.319Z,91.35
2019-02-22T07:58:41.548Z,91.81
2019-02-22T08:01:11.996Z,91.78
2019-02-22T08:03:43.799Z,92.03
2019-02-22T08:06:14.246Z,92.19
2019-02-22T08:08:44.742Z,92.61
2019-02-22T08:11:15.192Z,91.63
2019-02-22T08:13:45.656Z,91.79
2019-02-22T08:16:16.128Z,92.53
2019-02-22T08:18:46.566Z,92.53
2019-02-22T08:21:17.039Z,92.06
2019-02-22T08:23:47.526Z,91.20
2019-02-22T08:26:18.026Z,90.97
2019-02-22T08:28:48.834Z,91.85
2019-02-22T08:31:19.277Z,92.13
2019-02-22T08:33:49.751Z,91.82
2019-02-22T08:36:20.219Z,91.11
2019-02-22T08:38:50.697Z,91.26
2019-02-22T08:41:21.153Z,91.17
2019-02-22T08:43:51.632Z,91.49
2019-02-22T08:46:22.110Z,91.56
2019-02-22T08:48:52.551Z,91.90
2019-02-22T08:51:23.435Z,91.94
2019-02-22T08:53:54.251Z,91.68
2019-02-22T08:56:24.740Z,91.72
2019-02-22T08:58:55.186Z,91.81
2019-02-22T09:01:25.629Z,91.38
2019-02-22T09:03:56.110Z,91.51
2019-02-22T09:06:26.638Z,91.88
2019-02-22T09:08:57.143Z,91.49
2019-02-22T09:11:27.585Z,91.65
2019-02-22T09:13:58.037Z,90.95
2019-02-22T09:16:28.509Z,91.32
2019-02-22T09:18:58.942Z,91.48
2019-02-22T09:21:29.434Z,91.17
2019-02-22T09:24:00.246Z,90.61
2019-02-22T09:26:30.690Z,90.58
2019-02-22T09:29:01.193Z,91.18
2019-02-22T09:31:33.142Z,92.32
2019-02-22T09:34:03.613Z,91.91
2019-02-22T09:36:34.135Z,92.05
2019-02-22T09:39:06.922Z,92.08
2019-02-22T09:41:37.468Z,92.39
2019-02-22T09:44:07.923Z,92.25
2019-02-22T09:46:38.367Z,92.60
2019-02-22T09:49:09.012Z,92.41
2019-02-22T09:51:41.222Z,92.29
2019-02-22T09:54:11.602Z,92.25
2019-02-22T09:56:42.074Z,92.60
2019-02-22T09:59:12.891Z,91.89
2019-02-22T10:01:43.359Z,91.77
2019-02-22T10:04:13.807Z,91.24
2019-02-22T10:06:44.281Z,90.61
2019-02-22T10:09:14.733Z,89.78
2019-02-22T10:11:45.270Z,88.86
2019-02-22T10:14:15.775Z,88.00
2019-02-22T10:16:46.492Z,87.69
2019-02-22T10:19:16.998Z,86.77
2019-02-22T10:21:48.134Z,86.43
2019-02-22T10:24:18.561Z,85.61
2019-02-22T10:26:49.043Z,86.07
2019-02-22T10:29:19.921Z,85.65
2019-02-22T10:31:50.754Z,86.39
2019-02-22T10:34:22.132Z,86.77
2019-02-22T10:36:52.592Z,86.98
2019-02-22T10:39:23.086Z,86.47
2019-02-22T10:41:53.580Z,87.43
2019-02-22T10:44:24.030Z,88.60
2019-02-22T10:46:54.489Z,88.80
2019-02-22T10:49:25.376Z,89.51
2019-02-22T10:51:55.775Z,89.73
2019-02-22T10:54:26.278Z,90.08
2019-02-22T10:56:56.721Z,89.85
2019-02-22T10:59:27.183Z,89.82
2019-02-22T11:01:57.664Z,90.02
2019-02-22T11:04:28.126Z,89.46
2019-02-22T11:06:58.635Z,89.20
2019-02-22T11:09:29.087Z,88.85
2019-02-22T11:11:59.566Z,89.46
2019-02-22T11:14:30.426Z,88.90
2019-02-22T11:17:00.865Z,89.52
2019-02-22T11:19:31.531Z,89.18
2019-02-22T11:22:02.397Z,88.76
2019-02-22T11:24:32.815Z,89.16
2019-02-22T11:27:03.291Z,89.19
2019-02-22T11:29:34.151Z,88.99
2019-02-22T11:32:04.626Z,88.59
2019-02-22T11:34:35.070Z,87.68
2019-02-22T11:37:05.918Z,88.03
2019-02-22T11:39:36.451Z,87.88
2019-02-22T11:42:07.630Z,87.98
2019-02-22T11:44:40.430Z,87.81
2019-02-22T11:47:10.261Z,86.69
2019-02-22T11:49:40.711Z,86.51
2019-02-22T11:52:11.184Z,86.82
2019-02-22T11:54:41.680Z,86.67
2019-02-22T11:57:12.395Z,87.08
2019-02-22T11:59:42.840Z,87.27
2019-02-22T12:02:14.116Z,86.75
2019-02-22T12:04:44.562Z,87.56
2019-02-22T12:07:15.052Z,87.57
2019-02-22T12:09:45.767Z,87.99
2019-02-22T12:12:16.215Z,88.07
2019-02-22T12:14:51.499Z,87.83
2019-02-22T12:17:19.231Z,87.49
2019-02-22T12:19:50.393Z,86.91
2019-02-22T12:22:20.835Z,85.30
2019-02-22T12:24:51.275Z,85.05
2019-02-22T12:27:21.747Z,84.60
2019-02-22T12:29:52.187Z,85.98
2019-02-22T12:32:22.666Z,86.56
2019-02-22T12:34:53.129Z,85.50
2019-02-22T12:37:23.904Z,84.04
2019-02-22T12:39:54.744Z,84.04
2019-02-22T12:42:25.180Z,83.13
2019-02-22T12:45:02.814Z,83.23
2019-02-22T12:47:27.997Z,83.62
2019-02-22T12:49:58.526Z,83.80
2019-02-22T12:52:29.004Z,83.78
2019-02-22T12:54:59.503Z,84.14
2019-02-22T12:57:29.977Z,83.37
2019-02-22T13:00:00.424Z,83.78
2019-02-22T13:02:31.267Z,83.27
2019-02-22T13:05:01.723Z,82.91
2019-02-22T13:07:33.514Z,82.60
2019-02-22T13:10:03.985Z,83.02
2019-02-22T13:12:35.412Z,83.80
2019-02-22T13:15:13.565Z,82.74
2019-02-22T13:17:38.486Z,82.75
2019-02-22T13:20:09.398Z,82.95
2019-02-22T13:22:39.871Z,82.49
2019-02-22T13:25:10.474Z,82.12
2019-02-22T13:27:41.927Z,82.50
2019-02-22T13:30:12.864Z,82.18
2019-02-22T13:32:43.450Z,81.99
2019-02-22T13:35:13.990Z,82.06
2019-02-22T13:37:44.440Z,81.73
2019-02-22T13:40:15.222Z,81.61
2019-02-22T13:42:45.779Z,81.92
2019-02-22T13:45:25.973Z,82.08
2019-02-22T13:47:48.522Z,82.04
2019-02-22T13:50:19.080Z,82.00
2019-02-22T13:52:49.598Z,82.67
2019-02-22T13:55:20.438Z,81.75
2019-02-22T13:57:51.355Z,82.20
2019-02-22T14:00:21.834Z,82.14
2019-02-22T14:02:52.269Z,80.92
2019-02-22T14:05:22.990Z,80.93
2019-02-22T14:07:54.055Z,81.47
2019-02-22T14:10:25.430Z,81.33
2019-02-22T14:12:55.921Z,81.39
2019-02-22T14:15:37.037Z,81.91
2019-02-22T14:17:58.649Z,81.37
2019-02-22T14:20:29.106Z,81.79
2019-02-22T14:23:00.540Z,81.46
2019-02-22T14:25:31.021Z,81.59
2019-02-22T14:28:01.571Z,81.73
2019-02-22T14:30:32.056Z,82.42
2019-02-22T14:33:03.541Z,82.15
2019-02-22T14:35:34.081Z,81.67
2019-02-22T14:38:04.738Z,81.99
2019-02-22T14:40:35.158Z,81.98
2019-02-22T14:43:16.057Z,82.56
2019-02-22T14:45:48.770Z,82.84
2019-02-22T14:48:10.793Z,83.28
2019-02-22T14:50:41.263Z,83.02
2019-02-22T14:53:19.542Z,83.37
2019-02-22T14:55:44.059Z,83.00
2019-02-22T14:58:14.855Z,83.40
2019-02-22T15:00:47.148Z,83.27
2019-02-22T15:03:18.704Z,83.42
2019-02-22T15:05:49.212Z,83.14
2019-02-22T15:08:19.679Z,83.20
2019-02-22T15:10:50.129Z,83.21
2019-02-22T15:13:21.015Z,83.70
2019-02-22T15:16:13.476Z,83.49
2019-02-22T15:18:43.973Z,82.89
2019-02-22T15:21:14.446Z,83.04
2019-02-22T15:23:45.168Z,82.85
2019-02-22T15:26:16.022Z,82.64
2019-02-22T15:28:46.477Z,82.83
2019-02-22T15:31:17.082Z,83.19
2019-02-22T15:33:47.686Z,83.23
2019-02-22T15:36:18.123Z,82.51
2019-02-22T15:38:49.015Z,82.46
2019-02-22T15:41:19.463Z,82.42
2019-02-22T15:43:49.978Z,82.67
2019-02-22T15:46:20.423Z,82.36
2019-02-22T15:48:50.886Z,82.73
2019-02-22T15:51:21.331Z,82.85
2019-02-22T15:53:51.783Z,82.79
2019-02-22T15:56:22.277Z,82.37
2019-02-22T15:58:52.751Z,82.05
2019-02-22T16:01:25.498Z,82.52
2019-02-22T16:04:01.550Z,82.83
2019-02-22T16:06:32.462Z,82.75
2019-02-22T16:09:03.975Z,83.06
2019-02-22T16:11:34.414Z,82.70
2019-02-22T16:14:07.086Z,82.82
2019-02-22T16:16:37.119Z,83.26
2019-02-22T16:19:08.107Z,82.69
2019-02-22T16:21:38.557Z,82.74
2019-02-22T16:24:09.112Z,83.03
2019-02-22T16:26:39.611Z,83.98
2019-02-22T16:29:10.057Z,83.95
2019-02-22T16:31:40.538Z,84.00
2019-02-22T16:34:11.015Z,83.68
2019-02-22T16:36:41.612Z,82.92
2019-02-22T16:39:12.103Z,83.21
2019-02-22T16:41:42.964Z,83.14
2019-02-22T16:44:13.488Z,83.04
2019-02-22T16:46:44.306Z,83.29
2019-02-22T16:49:14.804Z,83.55
2019-02-22T16:51:48.038Z,83.32
2019-02-22T16:54:18.781Z,83.48
2019-02-22T16:56:49.646Z,83.64
2019-02-22T16:59:20.084Z,83.66
2019-02-22T17:01:50.577Z,84.10
2019-02-22T17:04:21.051Z,83.58
2019-02-22T17:06:51.531Z,84.14
2019-02-22T17:09:22.027Z,84.17
2019-02-22T17:11:52.904Z,84.35
2019-02-22T17:14:23.705Z,84.21
2019-02-22T17:16:54.478Z,84.47
2019-02-22T17:19:24.941Z,84.10
2019-02-22T17:21:55.448Z,84.37
2019-02-22T17:24:26.019Z,84.59
2019-02-22T17:26:56.858Z,84.58
2019-02-22T17:29:27.348Z,84.50
2019-02-22T17:31:57.789Z,84.68
2019-02-22T17:34:30.739Z,84.39
2019-02-22T17:37:02.171Z,84.34
2019-02-22T17:39:32.615Z,84.29
2019-02-22T17:42:03.153Z,84.16
2019-02-22T17:44:33.618Z,84.28
2019-02-22T17:47:06.520Z,84.65
2019-02-22T17:49:36.688Z,84.77
2019-02-22T17:52:07.142Z,84.22
2019-02-22T17:54:38.666Z,84.20
2019-02-22T17:57:09.143Z,83.94
2019-02-22T17:59:39.649Z,83.02
2019-02-22T18:02:10.165Z,82.76
2019-02-22T18:04:40.636Z,82.96
2019-02-22T18:07:11.130Z,83.19
2019-02-22T18:09:41.689Z,83.27
2019-02-22T18:12:12.195Z,83.43
2019-02-22T18:14:42.693Z,83.12
2019-02-22T18:17:13.199Z,82.34
2019-02-22T18:19:43.626Z,83.05
2019-02-22T18:22:14.076Z,83.36
2019-02-22T18:24:44.548Z,83.18
2019-02-22T18:27:15.009Z,83.20
2019-02-22T18:29:45.868Z,83.65
2019-02-22T18:32:16.688Z,83.78
2019-02-22T18:34:48.054Z,84.13
2019-02-22T18:37:18.506Z,84.02
2019-02-22T18:39:49.110Z,83.96
2019-02-22T18:42:20.271Z,83.86
2019-02-22T18:44:50.711Z,83.76
2019-02-22T18:47:21.166Z,83.97
2019-02-22T18:49:51.660Z,83.86
2019-02-22T18:52:23.137Z,83.93
2019-02-22T18:54:53.599Z,84.36
2019-02-22T18:57:25.316Z,84.79
2019-02-22T18:59:55.921Z,84.95
2019-02-22T19:02:26.790Z,84.74
2019-02-22T19:04:57.668Z,85.08
2019-02-22T19:07:28.855Z,85.32
2019-02-22T19:09:59.329Z,85.00
2019-02-22T19:12:29.792Z,85.07
2019-02-22T19:15:00.312Z,85.16
2019-02-22T19:17:30.797Z,85.33
2019-02-22T19:20:01.303Z,85.62
2019-02-22T19:22:33.068Z,85.31
2019-02-22T19:25:03.820Z,85.16
2019-02-22T19:27:34.344Z,84.91
2019-02-22T19:30:05.423Z,84.74
2019-02-22T19:32:35.902Z,84.68
2019-02-22T19:35:06.494Z,85.11
2019-02-22T19:37:38.235Z,84.73
2019-02-22T19:40:13.868Z,84.62
2019-02-22T19:42:44.397Z,84.74
2019-02-22T19:45:15.571Z,84.98
2019-02-22T19:47:46.182Z,85.12
2019-02-22T19:50:16.978Z,84.85
2019-02-22T19:52:47.448Z,84.87
2019-02-22T19:55:18.916Z,84.65
2019-02-22T19:57:49.544Z,84.61
2019-02-22T20:00:20.501Z,84.71
2019-02-22T20:02:51.015Z,84.69
2019-02-22T20:05:21.635Z,84.90
2019-02-22T20:07:53.108Z,85.17
2019-02-22T20:10:23.665Z,85.04
2019-02-22T20:12:54.167Z,84.84
2019-02-22T20:15:25.616Z,85.20
2019-02-22T20:17:57.753Z,84.85
2019-02-22T20:20:38.359Z,84.60
2019-02-22T20:23:09.279Z,84.74
2019-02-22T20:25:40.068Z,85.03
2019-02-22T20:28:10.586Z,84.86
2019-02-22T20:30:41.060Z,84.87
2019-02-22T20:33:11.514Z,84.99
2019-02-22T20:35:42.523Z,85.01
2019-02-22T20:38:12.979Z,85.14
2019-02-22T20:40:43.428Z,85.39
2019-02-22T20:43:15.213Z,85.38
2019-02-22T20:45:45.684Z,85.50
2019-02-22T20:48:18.436Z,85.61
2019-02-22T20:50:50.117Z,85.94
2019-02-22T20:53:21.247Z,86.14
2019-02-22T20:55:51.695Z,85.81
2019-02-22T20:58:22.233Z,85.98
2019-02-22T21:00:52.774Z,85.94
2019-02-22T21:03:24.500Z,86.20
2019-02-22T21:05:55.486Z,85.87
2019-02-22T21:08:25.966Z,85.74
2019-02-22T21:10:56.479Z,85.89
2019-02-22T21:13:28.255Z,85.72
2019-02-22T21:15:58.935Z,86.23
2019-02-22T21:18:29.378Z,85.88
2019-02-22T21:21:02.114Z,85.93
2019-02-22T21:23:32.942Z,85.91
2019-02-22T21:26:03.406Z,85.60
2019-02-22T21:28:34.398Z,85.44
2019-02-22T21:31:05.329Z,85.42
2019-02-22T21:33:36.104Z,85.28
2019-02-22T21:36:06.628Z,85.22
2019-02-22T21:38:37.510Z,85.17
2019-02-22T21:41:08.049Z,85.50
2019-02-22T21:43:38.565Z,85.63
2019-02-22T21:46:09.762Z,85.91
2019-02-22T21:48:40.722Z,86.09
2019-02-22T21:51:11.571Z,86.28
2019-02-22T21:53:42.040Z,86.28
2019-02-22T21:56:17.344Z,86.17
2019-02-22T21:58:48.935Z,86.27
2019-02-22T22:01:19.471Z,86.17
2019-02-22T22:03:51.453Z,86.17
2019-02-22T22:06:21.970Z,86.01
2019-02-22T22:08:52.413Z,85.84
2019-02-22T22:11:22.926Z,85.98
2019-02-22T22:13:53.381Z,85.75
2019-02-22T22:16:23.822Z,86.17
2019-02-22T22:18:54.415Z,86.07
2019-02-22T22:21:24.860Z,85.82
2019-02-22T22:23:55.332Z,85.29
2019-02-22T22:26:25.908Z,85.41
2019-02-22T22:28:56.362Z,84.98
2019-02-22T22:31:26.812Z,85.04
2019-02-22T22:33:57.358Z,85.42
2019-02-22T22:36:27.799Z,85.54
2019-02-22T22:38:58.663Z,85.32
2019-02-22T22:41:29.176Z,85.28
2019-02-22T22:43:59.618Z,85.36
2019-02-22T22:46:36.838Z,84.85
2019-02-22T22:49:02.255Z,84.99
2019-02-22T22:51:32.698Z,84.71
2019-02-22T22:54:03.150Z,84.51
2019-02-22T22:56:33.638Z,84.02
2019-02-22T22:59:04.078Z,83.66
2019-02-22T23:01:36.221Z,83.34
2019-02-22T23:04:06.711Z,83.69
2019-02-22T23:06:37.153Z,83.32
2019-02-22T23:09:16.344Z,82.97
2019-02-22T23:11:46.790Z,82.93
2019-02-22T23:14:17.236Z,82.63
2019-02-22T23:16:47.745Z,83.05
2019-02-22T23:19:18.347Z,82.39
2019-02-22T23:21:48.787Z,81.73
2019-02-22T23:24:19.284Z,82.25
2019-02-22T23:26:49.727Z,82.52
2019-02-22T23:29:20.166Z,82.49
2019-02-22T23:31:50.657Z,82.72
2019-02-22T23:34:21.099Z,82.56
2019-02-22T23:36:51.623Z,82.32
2019-02-22T23:39:22.285Z,82.55
2019-02-22T23:41:53.222Z,82.64
2019-02-22T23:44:23.936Z,82.78
2019-02-22T23:46:54.420Z,82.31
2019-02-22T23:49:24.862Z,82.44
2019-02-22T23:51:55.301Z,82.13
2019-02-22T23:54:25.788Z,82.26
2019-02-22T23:56:56.287Z,81.35
2019-02-22T23:59:26.787Z,81.70
